Flight Track Log - Related Links

Times and Time Zones

All times are in EST time to prevent confusion due to time zone crossing. See the SWA4045 flight status page for this flight to view local times or setup timezone preferences in your user account.

Time Position Orientation Groundspeed Altitude Reporting Facility
EST Latitude Longitude Course Direction KTS MPH feet Rate Location/Type
Tue 06:12:01 PM 42.9500 -71.4167 20° North 170 196 1,200  Level KA90
Tue 06:12:43 PM 42.9833 -71.4000 20° North 188 216 2,700 2,588 Climbing KA90
Tue 06:13:43 PM 43.0333 -71.3667 26° Northeast 226 260 5,600 2,848 Climbing KA90
Tue 06:14:22 PM 43.0553 -71.4178 300° West 225 259 7,400 2,680 Climbing Boston Center
Tue 06:15:26 PM 43.0944 -71.4944 305° West 245 282 10,200 1,984 Climbing Boston Center
Tue 06:16:26 PM 43.1408 -71.6017 301° West 313 360 11,500 2,033 Climbing Boston Center
Tue 06:17:27 PM 43.1433 -71.7339 272° West 349 402 14,300 2,516 Climbing Boston Center
Tue 06:18:30 PM 43.1425 -71.8708 270° West 361 415 16,700 2,274 Climbing Boston Center
Tue 06:19:31 PM 43.0872 -72.0094 241° Southwest 383 441 19,000 1,623 Climbing Boston Center
Tue 06:20:32 PM 43.0458 -72.1206 243° Southwest 394 453 20,000 1,672 Climbing Boston Center
Tue 06:21:33 PM 43.0547 -72.3006 274° West 391 450 22,400 2,083 Climbing Boston Center
Tue 06:22:33 PM 43.0622 -72.4531 274° West 395 455 24,200 1,597 Climbing Boston Center
Tue 06:23:37 PM 43.0669 -72.6125 272° West 412 474 25,700 1,548 Climbing Boston Center
Tue 06:24:37 PM 43.0686 -72.7939 271° West 430 495 27,400 1,694 Climbing Boston Center
Tue 06:25:41 PM 43.0647 -72.9544 268° West 425 489 29,200 1,548 Climbing Boston Center
Tue 06:26:41 PM 43.0606 -73.0931 268° West 423 487 30,600 1,400 Climbing Boston Center
Tue 06:27:41 PM 43.0581 -73.2522 269° West 423 487 32,000 1,289 Climbing Boston Center
Tue 06:28:42 PM 43.0522 -73.4217 267° West 419 482 33,200 960 Climbing Boston Center
Tue 06:29:46 PM 43.0561 -73.5789 272° West 415 478 34,000 381 Climbing Boston Center
Tue 06:30:48 PM 43.1306 -73.7167 307° West 409 471 34,000  Level Boston Center
Tue 06:31:48 PM 43.2381 -73.8028 330° Northwest 412 474 34,000 99 Level Boston Center
Tue 06:32:49 PM 43.3344 -73.8794 330° Northwest 403 464 34,200 537 Climbing Boston Center
Tue 06:33:51 PM 43.4381 -73.9653 329° Northwest 401 461 35,100 738 Climbing Boston Center
Tue 06:34:51 PM 43.5228 -74.0653 319° Northwest 410 472 35,700 435 Climbing Boston Center
Tue 06:35:55 PM 43.5333 -74.1969 276° West 399 459 36,000 144 Climbing Boston Center
Tue 06:36:56 PM 43.4675 -74.3225 234° Southwest 414 476 36,000  Level Boston Center
Tue 06:37:56 PM 43.3781 -74.4300 221° Southwest 424 488 36,000  Level Boston Center
Tue 06:38:57 PM 43.3378 -74.6061 253° West 408 470 36,000  Level Boston Center
Tue 06:40:00 PM 43.3214 -74.7597 262° West 408 470 36,000  Level Boston Center
Tue 06:41:01 PM 43.3053 -74.9153 262° West 411 473 36,000  Level Boston Center
Tue 06:42:02 PM 43.2897 -75.0703 262° West 409 471 36,000  Level Boston Center
Tue 06:43:03 PM 43.2647 -75.2194 257° West 411 473 36,000  Level Boston Center
Tue 06:44:03 PM 43.2317 -75.3772 254° West 403 464 36,000  Level Boston Center
Tue 06:45:07 PM 43.2050 -75.5222 256° West 392 451 36,000  Level Boston Center
Tue 06:46:07 PM 43.1761 -75.6650 255° West 388 447 36,000  Level Boston Center
Tue 06:47:11 PM 43.1472 -75.8036 254° West 380 437 36,000  Level Boston Center
Tue 06:48:11 PM 43.1206 -75.9406 255° West 375 432 36,000  Level Boston Center
Tue 06:49:12 PM 43.0933 -76.0756 255° West 369 425 36,000  Level Boston Center
Tue 06:50:13 PM 43.0653 -76.2106 254° West 368 423 36,000  Level Boston Center
Tue 06:51:16 PM 43.0328 -76.3711 255° West 367 422 36,000  Level Boston Center
Tue 06:52:17 PM 43.0042 -76.5039 254° West 366 421 36,000 -344 Level Boston Center
Tue 06:53:18 PM 42.9781 -76.6369 255° West 363 418 35,300 -804 Descending Boston Center
Tue 06:54:09 PM 42.9508 -76.7544 252° West 361 415 34,500 -690 Descending Cleveland Center
Tue 06:55:11 PM 42.9236 -76.8906 255° West 369 425 34,000 -242 Descending Cleveland Center
Tue 06:56:13 PM 42.8944 -77.0269 254° West 375 432 34,000  Level Cleveland Center
Tue 06:57:15 PM 42.8528 -77.1636 247° West 389 448 34,000  Level Cleveland Center
Tue 06:58:18 PM 42.8069 -77.2989 245° Southwest 394 453 34,000  Level Cleveland Center
Tue 06:59:20 PM 42.7539 -77.4608 246° West 394 453 34,000  Level Cleveland Center
Tue 07:00:22 PM 42.7186 -77.5692 246° West 395 455 34,000  Level Cleveland Center
Tue 07:01:24 PM 42.6672 -77.7192 245° Southwest 395 455 34,000  Level Cleveland Center
Tue 07:02:26 PM 42.6222 -77.8569 246° West 395 455 34,000  Level Cleveland Center
Tue 07:03:28 PM 42.5675 -78.0194 245° Southwest 397 457 34,000  Level Cleveland Center
Tue 07:04:30 PM 42.5217 -78.1544 245° Southwest 397 457 34,000  Level Cleveland Center
Tue 07:05:32 PM 42.4761 -78.2894 245° Southwest 395 455 34,000  Level Cleveland Center
Tue 07:06:34 PM 42.4294 -78.4244 245° Southwest 397 457 34,000  Level Cleveland Center
Tue 07:07:36 PM 42.3831 -78.5586 245° Southwest 396 456 34,000  Level Cleveland Center
Tue 07:08:38 PM 42.3281 -78.7186 245° Southwest 392 451 34,000  Level Cleveland Center
Tue 07:09:40 PM 42.2814 -78.8511 245° Southwest 391 450 34,000  Level Cleveland Center
Tue 07:10:43 PM 42.2408 -78.9722 246° West 389 448 34,000  Level Cleveland Center
Tue 07:11:45 PM 42.1883 -79.1292 246° West 387 445 34,000  Level Cleveland Center
Tue 07:12:47 PM 42.1708 -79.2661 260° West 374 430 34,000  Level Cleveland Center
Tue 07:13:49 PM 42.1539 -79.4031 261° West 375 432 34,000  Level Cleveland Center
Tue 07:14:51 PM 42.1364 -79.5411 260° West 375 432 34,000  Level Cleveland Center
Tue 07:15:53 PM 42.1192 -79.6811 261° West 381 438 34,000  Level Cleveland Center
Tue 07:16:55 PM 42.0972 -79.8481 260° West 382 440 34,000  Level Cleveland Center
Tue 07:17:57 PM 42.0803 -79.9811 260° West 381 438 34,000  Level Cleveland Center
Tue 07:18:59 PM 42.0625 -80.1264 261° West 391 450 34,000  Level Cleveland Center
Tue 07:20:01 PM 42.0436 -80.2664 260° West 384 442 34,000  Level Cleveland Center
Tue 07:21:03 PM 42.0250 -80.4083 260° West 387 445 34,000  Level Cleveland Center
Tue 07:22:05 PM 42.0028 -80.5725 260° West 380 437 34,000  Level Cleveland Center
Tue 07:23:06 PM 41.9828 -80.7144 259° West 383 441 34,000  Level Cleveland Center
Tue 07:24:08 PM 41.9644 -80.8558 260° West 383 441 34,000  Level Cleveland Center
Tue 07:25:10 PM 41.9444 -80.9961 259° West 381 438 34,000  Level Cleveland Center
Tue 07:26:12 PM 41.9239 -81.1378 259° West 384 442 34,000  Level Cleveland Center
Tue 07:27:14 PM 41.9047 -81.2792 260° West 384 442 34,000  Level Cleveland Center
Tue 07:28:16 PM 41.8839 -81.4214 259° West 388 447 34,000  Level Cleveland Center
Tue 07:29:18 PM 41.8592 -81.5881 259° West 389 448 34,000  Level Cleveland Center
Tue 07:30:20 PM 41.8394 -81.7294 259° West 386 444 34,000  Level Cleveland Center
Tue 07:31:22 PM 41.8197 -81.8711 259° West 386 444 34,000  Level Cleveland Center
Tue 07:32:24 PM 41.7975 -82.0128 258° West 387 445 34,000  Level Cleveland Center
Tue 07:33:26 PM 41.7753 -82.1689 259° West 387 445 34,000  Level Cleveland Center
Tue 07:34:28 PM 41.7547 -82.3078 259° West 384 442 34,000  Level Cleveland Center
Tue 07:35:30 PM 41.7336 -82.4497 259° West 387 445 34,000  Level Cleveland Center
Tue 07:36:32 PM 41.7136 -82.5903 259° West 385 443 34,000  Level Cleveland Center
Tue 07:37:34 PM 41.7003 -82.7333 263° West 388 447 34,000  Level Cleveland Center
Tue 07:38:35 PM 41.6850 -82.8767 262° West 389 448 34,000  Level Cleveland Center
Tue 07:39:37 PM 41.6689 -83.0189 261° West 387 445 34,000  Level Cleveland Center
Tue 07:40:39 PM 41.6511 -83.1903 262° West 387 445 34,000  Level Cleveland Center
Tue 07:41:41 PM 41.6353 -83.3331 262° West 389 448 34,000  Level Cleveland Center
Tue 07:42:43 PM 41.6186 -83.4747 261° West 385 443 34,000  Level Cleveland Center
Tue 07:43:45 PM 41.6036 -83.6147 262° West 382 440 34,000  Level Cleveland Center
Tue 07:44:47 PM 41.5864 -83.7553 261° West 383 441 34,000  Level Cleveland Center
Tue 07:45:49 PM 41.5708 -83.8961 262° West 381 438 34,000  Level Cleveland Center
Tue 07:46:51 PM 41.5539 -84.0364 261° West 383 441 34,000  Level Cleveland Center
Tue 07:47:45 PM 41.5353 -84.1881 261° West 384 442 34,000  Level Chicago Center
Tue 07:48:47 PM 41.5197 -84.3275 262° West 380 437 34,000 -629 Level Chicago Center
Tue 07:49:49 PM 41.5025 -84.4611 260° West 368 423 32,700 -1,403 Descending Chicago Center
Tue 07:50:51 PM 41.4872 -84.5894 261° West 352 405 31,100 -1,306 Descending Chicago Center
Tue 07:51:53 PM 41.4839 -84.7306 268° West 378 435 30,000 -532 Descending Chicago Center
Tue 07:52:55 PM 41.4892 -84.8775 273° West 397 457 30,000  Level Chicago Center
Tue 07:53:57 PM 41.4944 -85.0236 273° West 395 455 30,000 -387 Level Chicago Center
Tue 07:54:59 PM 41.5006 -85.2006 273° West 396 456 29,200 -1,935 Descending Chicago Center
Tue 07:56:01 PM 41.5044 -85.3494 272° West 396 456 26,000 -2,516 Descending Chicago Center
Tue 07:57:03 PM 41.5097 -85.4969 273° West 388 447 24,000 -1,610 Descending Chicago Center
Tue 07:58:04 PM 41.5136 -85.6403 272° West 381 438 22,700 -1,742 Descending Chicago Center
Tue 07:59:07 PM 41.5178 -85.7742 272° West 362 417 20,400 -2,304 Descending Chicago Center
Tue 08:00:09 PM 41.5211 -85.9050 272° West 352 405 17,900 -1,935 Descending Chicago Center
Tue 08:01:11 PM 41.5247 -86.0333 272° West 347 399 16,400 -1,463 Descending Chicago Center
Tue 08:02:12 PM 41.5242 -86.1647 270° West 353 406 14,900 -2,049 Descending Chicago Center
Tue 08:03:14 PM 41.5228 -86.3156 269° West 340 391 12,200 -1,887 Descending Chicago Center
Tue 08:04:16 PM 41.5222 -86.4364 270° West 329 379 11,000 -968 Descending Chicago Center
Tue 08:05:18 PM 41.5211 -86.5533 269° West 317 365 10,200 -484 Descending Chicago Center
Tue 08:06:20 PM 41.5197 -86.6553 269° West 280 322 10,000 -97 Descending Chicago Center
Tue 08:07:22 PM 41.5200 -86.7525 270° West 246 283 10,000  Level Chicago Center
Tue 08:08:24 PM 41.5189 -86.8469 269° West 254 292 10,000 -484 Level Chicago Center
Tue 08:09:26 PM 41.5183 -86.9419 270° West 256 295 9,000 -1,210 Descending Chicago Center
Tue 08:10:28 PM 41.5178 -87.0367 270° West 257 296 7,500 -1,452 Descending Chicago Center
Tue 08:11:30 PM 41.5164 -87.1508 269° West 257 296 6,000 -1,161 Descending Chicago Center
Tue 08:12:32 PM 41.5342 -87.2414 285° West 253 291 5,100 -871 Descending Chicago Center
Tue 08:13:34 PM 41.5589 -87.3328 290° West 261 300 4,200 -532 Descending Chicago Center
Tue 08:14:36 PM 41.5700 -87.4256 279° West 261 300 4,000 -96 Descending Chicago Center
Tue 08:15:39 PM 41.5692 -87.5192 269° West 258 297 4,000  Level Chicago Center
Tue 08:16:41 PM 41.5683 -87.6297 269° West 253 291 4,000  Level Chicago Center
Tue 08:17:43 PM 41.5700 -87.7083 272° West 231 266 4,000  Level Chicago Center
Tue 08:18:45 PM 41.5731 -87.7694 274° West 187 215 4,000  Level Chicago Center
Tue 08:19:47 PM 41.5753 -87.8317 273° West 175 201 4,000 -242 Level Chicago Center
Tue 08:20:49 PM 41.5925 -87.8889 292° West 179 206 3,500 -484 Descending Chicago Center
Tue 08:21:51 PM 41.6264 -87.9517 306° West 177 204 3,000 -484 Descending Chicago Center
Tue 08:22:53 PM 41.6544 -88.0050 305° West 177 204 2,500 -242 Descending Chicago Center
Tue 08:23:55 PM 41.6831 -88.0583 306° West 177 204 2,500  Level Chicago Center
Tue 08:24:57 PM 41.7217 -88.0964 324° Northwest 190 219 2,500  Level Chicago Center
Tue 08:25:59 PM 41.7706 -88.0722 20° North 200 230 2,500  Level Chicago Center
Tue 08:27:01 PM 41.8267 -88.0206 34° Northeast 203 234 2,500  Level Chicago Center
Tue 08:28:03 PM 41.8708 -87.9778 36° Northeast 200 230 2,500  Level Chicago Center
Tue 08:28:54 PM 41.9000 -87.9333 49° Northeast 187 215 2,500 -216 Level Chicago TRACON
Tue 08:29:54 PM 41.8833 -87.8833 114° Southeast 156 180 2,100 -200 Descending Chicago TRACON
Tue 08:30:54 PM 41.8500 -87.8333 132° Southeast 153 176 2,100 -298 Level Chicago TRACON
Tue 08:31:55 PM 41.8167 -87.8000 143° Southeast 138 159 1,500 -518 Descending Chicago TRACON
Tue 08:33:13 PM 41.7872 -87.7569 133° Southeast 145 167 900 -462 Descending Chicago Center

Login

Don't have an account? Register now (free) for customized features, flight alerts, and more!